PWSweather.com
Personal Weather Stations
Station Observations
KMOHERMA2
Stony Hill, Hermann, MO 65041

Stony HillHermann, MO 65041

Lat: 38.527, Lon: -91.414

Elevation: 896

Station Type: Davis Vantage Pro 2

High Low Average
Temperature 53.1°F11.7°C 29.8°F-1.2°C 42.3°F5.7°C
Dew Point 34.5°F1.4°C 18.7°F-7.4°C 27.0°F-2.8°C
Winds 12.0 mph 19.3 kmh Calm Calm 2.0 mph E3.2 kmh E
Wind Gusts 17.0 mph27.4 kmh -- 1.0 mph1.6 kmh
Humidity 70% 43% 55%
Pressure 30.39 in1029.1 mb 30.13 in1020.3 mb -
Precipitation 0.00 in0.0 mm - -
Hour Temp Dew Point Humidity Winds Wind Gusts Pressure Precip Precip Rate Daily Precip Total
12:00 AM 36.7°F2.6°C 19.8°F-6.8°C 50% Calm Calm -- 30.37 in1028.4 mb 0.00 in0.0 mm 0.00 in0.0 mm 0.00 in0.0 mm
12:05 AM 36.6°F2.6°C 20.3°F-6.5°C 51% Calm Calm -- 30.37 in1028.4 mb 0.00 in0.0 mm 0.00 in0.0 mm 0.00 in0.0 mm
12:10 AM 36.6°F2.6°C 20.3°F-6.5°C 51% Calm Calm -- 30.36 in1028.1 mb 0.00 in0.0 mm 0.00 in0.0 mm 0.00 in0.0 mm
12:15 AM 36.5°F2.5°C 20.1°F-6.6°C 51% Calm Calm -- 30.36 in1028.1 mb 0.00 in0.0 mm 0.00 in0.0 mm 0.00 in0.0 mm
12:20 AM 36.5°F2.5°C 20.1°F-6.6°C 51% Calm Calm -- 30.36 in1028.1 mb 0.00 in0.0 mm 0.00 in0.0 mm 0.00 in0.0 mm
12:25 AM 36.4°F2.4°C 19.9°F-6.7°C 51% Calm Calm -- 30.36 in1028.1 mb 0.00 in0.0 mm 0.00 in0.0 mm 0.00 in0.0 mm
12:30 AM 36.3°F2.4°C 19.9°F-6.7°C 51% Calm Calm -- 30.36 in1028.1 mb 0.00 in0.0 mm 0.00 in0.0 mm 0.00 in0.0 mm
12:35 AM 36.2°F2.3°C 20.3°F-6.5°C 52% Calm Calm -- 30.36 in1028.1 mb 0.00 in0.0 mm 0.00 in0.0 mm 0.00 in0.0 mm
12:40 AM 36.2°F2.3°C 20.3°F-6.5°C 52% Calm Calm -- 30.36 in1028.1 mb 0.00 in0.0 mm 0.00 in0.0 mm 0.00 in0.0 mm
12:45 AM 36.2°F2.3°C 20.3°F-6.5°C 52% Calm Calm -- 30.36 in1028.1 mb 0.00 in0.0 mm 0.00 in0.0 mm 0.00 in0.0 mm
12:50 AM 36.1°F2.3°C 20.3°F-6.5°C 52% Calm Calm -- 30.36 in1028.1 mb 0.00 in0.0 mm 0.00 in0.0 mm 0.00 in0.0 mm
12:55 AM 36.0°F2.2°C 20.1°F-6.6°C 52% Calm Calm -- 30.35 in1027.8 mb 0.00 in0.0 mm 0.00 in0.0 mm 0.00 in0.0 mm
01:00 AM 35.8°F2.1°C 19.9°F-6.7°C 52% Calm Calm -- 30.35 in1027.8 mb 0.00 in0.0 mm 0.00 in0.0 mm 0.00 in0.0 mm
01:05 AM 35.8°F2.1°C 19.9°F-6.7°C 52% Calm Calm -- 30.35 in1027.8 mb 0.00 in0.0 mm 0.00 in0.0 mm 0.00 in0.0 mm
01:10 AM 35.7°F2.1°C 19.9°F-6.7°C 52% Calm Calm -- 30.35 in1027.8 mb 0.00 in0.0 mm 0.00 in0.0 mm 0.00 in0.0 mm
01:15 AM 35.6°F2.0°C 19.8°F-6.8°C 52% Calm Calm -- 30.35 in1027.8 mb 0.00 in0.0 mm 0.00 in0.0 mm 0.00 in0.0 mm
01:20 AM 35.6°F2.0°C 19.8°F-6.8°C 52% Calm Calm -- 30.35 in1027.8 mb 0.00 in0.0 mm 0.00 in0.0 mm 0.00 in0.0 mm
01:25 AM 35.5°F1.9°C 19.6°F-6.9°C 52% Calm Calm -- 30.35 in1027.8 mb 0.00 in0.0 mm 0.00 in0.0 mm 0.00 in0.0 mm
01:30 AM 35.5°F1.9°C 19.6°F-6.9°C 52% Calm Calm -- 30.35 in1027.8 mb 0.00 in0.0 mm 0.00 in0.0 mm 0.00 in0.0 mm
01:35 AM 35.5°F1.9°C 19.6°F-6.9°C 52% Calm Calm -- 30.35 in1027.8 mb 0.00 in0.0 mm 0.00 in0.0 mm 0.00 in0.0 mm
01:40 AM 35.4°F1.9°C 19.6°F-6.9°C 52% Calm Calm -- 30.35 in1027.8 mb 0.00 in0.0 mm 0.00 in0.0 mm 0.00 in0.0 mm
01:45 AM 35.4°F1.9°C 19.6°F-6.9°C 52% Calm Calm -- 30.35 in1027.8 mb 0.00 in0.0 mm 0.00 in0.0 mm 0.00 in0.0 mm
01:50 AM 35.3°F1.8°C 19.4°F-7.0°C 52% Calm Calm -- 30.35 in1027.8 mb 0.00 in0.0 mm 0.00 in0.0 mm 0.00 in0.0 mm
01:55 AM 35.3°F1.8°C 19.4°F-7.0°C 52% Calm Calm -- 30.35 in1027.8 mb 0.00 in0.0 mm 0.00 in0.0 mm 0.00 in0.0 mm
02:00 AM 35.3°F1.8°C 19.4°F-7.0°C 52% Calm Calm -- 30.34 in1027.4 mb 0.00 in0.0 mm 0.00 in0.0 mm 0.00 in0.0 mm
02:05 AM 35.2°F1.8°C 19.4°F-7.0°C 52% Calm Calm -- 30.35 in1027.8 mb 0.00 in0.0 mm 0.00 in0.0 mm 0.00 in0.0 mm
02:10 AM 35.1°F1.7°C 19.2°F-7.1°C 52% Calm Calm -- 30.35 in1027.8 mb 0.00 in0.0 mm 0.00 in0.0 mm 0.00 in0.0 mm
02:15 AM 35.0°F1.7°C 19.8°F-6.8°C 53% Calm Calm -- 30.35 in1027.8 mb 0.00 in0.0 mm 0.00 in0.0 mm 0.00 in0.0 mm
02:20 AM 34.9°F1.6°C 19.6°F-6.9°C 53% Calm Calm -- 30.34 in1027.4 mb 0.00 in0.0 mm 0.00 in0.0 mm 0.00 in0.0 mm
02:25 AM 34.8°F1.6°C 19.6°F-6.9°C 53% Calm Calm -- 30.34 in1027.4 mb 0.00 in0.0 mm 0.00 in0.0 mm 0.00 in0.0 mm
02:30 AM 34.7°F1.5°C 19.4°F-7.0°C 53% Calm Calm -- 30.34 in1027.4 mb 0.00 in0.0 mm 0.00 in0.0 mm 0.00 in0.0 mm
02:35 AM 34.5°F1.4°C 19.2°F-7.1°C 53% Calm Calm -- 30.34 in1027.4 mb 0.00 in0.0 mm 0.00 in0.0 mm 0.00 in0.0 mm
02:40 AM 34.4°F1.3°C 19.0°F-7.2°C 53% Calm Calm -- 30.34 in1027.4 mb 0.00 in0.0 mm 0.00 in0.0 mm 0.00 in0.0 mm
02:45 AM 34.3°F1.3°C 19.0°F-7.2°C 53% Calm Calm -- 30.34 in1027.4 mb 0.00 in0.0 mm 0.00 in0.0 mm 0.00 in0.0 mm
02:50 AM 34.1°F1.2°C 19.2°F-7.1°C 54% Calm Calm -- 30.34 in1027.4 mb 0.00 in0.0 mm 0.00 in0.0 mm 0.00 in0.0 mm
02:55 AM 34.0°F1.1°C 19.0°F-7.2°C 54% Calm Calm -- 30.34 in1027.4 mb 0.00 in0.0 mm 0.00 in0.0 mm 0.00 in0.0 mm
03:00 AM 33.8°F1.0°C 19.4°F-7.0°C 55% Calm Calm -- 30.34 in1027.4 mb 0.00 in0.0 mm 0.00 in0.0 mm 0.00 in0.0 mm
03:05 AM 33.7°F0.9°C 19.2°F-7.1°C 55% Calm Calm -- 30.34 in1027.4 mb 0.00 in0.0 mm 0.00 in0.0 mm 0.00 in0.0 mm
03:10 AM 33.6°F0.9°C 19.2°F-7.1°C 55% Calm Calm -- 30.33 in1027.1 mb 0.00 in0.0 mm 0.00 in0.0 mm 0.00 in0.0 mm
03:15 AM 33.6°F0.9°C 19.2°F-7.1°C 55% Calm Calm -- 30.34 in1027.4 mb 0.00 in0.0 mm 0.00 in0.0 mm 0.00 in0.0 mm
03:20 AM 33.5°F0.8°C 19.0°F-7.2°C 55% Calm Calm -- 30.34 in1027.4 mb 0.00 in0.0 mm 0.00 in0.0 mm 0.00 in0.0 mm
03:25 AM 33.4°F0.8°C 19.0°F-7.2°C 55% Calm Calm -- 30.34 in1027.4 mb 0.00 in0.0 mm 0.00 in0.0 mm 0.00 in0.0 mm
03:30 AM 33.3°F0.7°C 18.9°F-7.3°C 55% Calm Calm -- 30.34 in1027.4 mb 0.00 in0.0 mm 0.00 in0.0 mm 0.00 in0.0 mm
03:35 AM 33.2°F0.7°C 19.2°F-7.1°C 56% Calm Calm -- 30.33 in1027.1 mb 0.00 in0.0 mm 0.00 in0.0 mm 0.00 in0.0 mm
03:40 AM 33.0°F0.6°C 19.0°F-7.2°C 56% Calm Calm -- 30.33 in1027.1 mb 0.00 in0.0 mm 0.00 in0.0 mm 0.00 in0.0 mm
03:45 AM 32.8°F0.4°C 18.9°F-7.3°C 56% Calm Calm -- 30.33 in1027.1 mb 0.00 in0.0 mm 0.00 in0.0 mm 0.00 in0.0 mm
03:50 AM 32.6°F0.3°C 18.7°F-7.4°C 56% Calm Calm -- 30.33 in1027.1 mb 0.00 in0.0 mm 0.00 in0.0 mm 0.00 in0.0 mm
03:55 AM 32.5°F0.3°C 19.0°F-7.2°C 57% Calm Calm -- 30.33 in1027.1 mb 0.00 in0.0 mm 0.00 in0.0 mm 0.00 in0.0 mm
04:00 AM 32.4°F0.2°C 18.9°F-7.3°C 57% Calm Calm -- 30.33 in1027.1 mb 0.00 in0.0 mm 0.00 in0.0 mm 0.00 in0.0 mm
04:05 AM 32.2°F0.1°C 18.7°F-7.4°C 57% Calm Calm -- 30.33 in1027.1 mb 0.00 in0.0 mm 0.00 in0.0 mm 0.00 in0.0 mm
04:10 AM 32.1°F0.1°C 19.0°F-7.2°C 58% Calm Calm -- 30.33 in1027.1 mb 0.00 in0.0 mm 0.00 in0.0 mm 0.00 in0.0 mm
04:15 AM 32.0°F0.0°C 19.4°F-7.0°C 59% Calm Calm -- 30.32 in1026.8 mb 0.00 in0.0 mm 0.00 in0.0 mm 0.00 in0.0 mm
04:20 AM 32.0°F0.0°C 19.4°F-7.0°C 59% Calm Calm -- 30.32 in1026.8 mb 0.00 in0.0 mm 0.00 in0.0 mm 0.00 in0.0 mm
04:25 AM 32.0°F0.0°C 19.4°F-7.0°C 59% Calm Calm -- 30.32 in1026.8 mb 0.00 in0.0 mm 0.00 in0.0 mm 0.00 in0.0 mm
04:30 AM 32.0°F0.0°C 19.4°F-7.0°C 59% Calm Calm -- 30.32 in1026.8 mb 0.00 in0.0 mm 0.00 in0.0 mm 0.00 in0.0 mm
04:35 AM 32.0°F0.0°C 19.4°F-7.0°C 59% Calm Calm -- 30.32 in1026.8 mb 0.00 in0.0 mm 0.00 in0.0 mm 0.00 in0.0 mm
04:40 AM 31.9°F-0.1°C 19.2°F-7.1°C 59% Calm Calm -- 30.32 in1026.8 mb 0.00 in0.0 mm 0.00 in0.0 mm 0.00 in0.0 mm
04:45 AM 31.8°F-0.1°C 19.6°F-6.9°C 60% Calm Calm -- 30.32 in1026.8 mb 0.00 in0.0 mm 0.00 in0.0 mm 0.00 in0.0 mm
04:50 AM 31.8°F-0.1°C 19.6°F-6.9°C 60% Calm Calm -- 30.32 in1026.8 mb 0.00 in0.0 mm 0.00 in0.0 mm 0.00 in0.0 mm
04:55 AM 31.7°F-0.2°C 19.8°F-6.8°C 61% Calm Calm -- 30.32 in1026.8 mb 0.00 in0.0 mm 0.00 in0.0 mm 0.00 in0.0 mm
05:00 AM 31.6°F-0.2°C 19.8°F-6.8°C 61% Calm Calm -- 30.33 in1027.1 mb 0.00 in0.0 mm 0.00 in0.0 mm 0.00 in0.0 mm
05:05 AM 31.4°F-0.3°C 19.6°F-6.9°C 61% Calm Calm -- 30.33 in1027.1 mb 0.00 in0.0 mm 0.00 in0.0 mm 0.00 in0.0 mm
05:10 AM 31.4°F-0.3°C 19.6°F-6.9°C 61% Calm Calm -- 30.33 in1027.1 mb 0.00 in0.0 mm 0.00 in0.0 mm 0.00 in0.0 mm
05:15 AM 31.4°F-0.3°C 19.6°F-6.9°C 61% Calm Calm -- 30.33 in1027.1 mb 0.00 in0.0 mm 0.00 in0.0 mm 0.00 in0.0 mm
05:20 AM 31.4°F-0.3°C 19.9°F-6.7°C 62% Calm Calm -- 30.33 in1027.1 mb 0.00 in0.0 mm 0.00 in0.0 mm 0.00 in0.0 mm
05:25 AM 31.4°F-0.3°C 19.9°F-6.7°C 62% Calm Calm -- 30.33 in1027.1 mb 0.00 in0.0 mm 0.00 in0.0 mm 0.00 in0.0 mm
05:30 AM 31.4°F-0.3°C 19.9°F-6.7°C 62% Calm Calm -- 30.34 in1027.4 mb 0.00 in0.0 mm 0.00 in0.0 mm 0.00 in0.0 mm
05:35 AM 31.4°F-0.3°C 19.9°F-6.7°C 62% Calm Calm -- 30.34 in1027.4 mb 0.00 in0.0 mm 0.00 in0.0 mm 0.00 in0.0 mm
05:40 AM 31.4°F-0.3°C 19.9°F-6.7°C 62% Calm Calm -- 30.34 in1027.4 mb 0.00 in0.0 mm 0.00 in0.0 mm 0.00 in0.0 mm
05:45 AM 31.4°F-0.3°C 19.9°F-6.7°C 62% Calm Calm -- 30.35 in1027.8 mb 0.00 in0.0 mm 0.00 in0.0 mm 0.00 in0.0 mm
05:50 AM 31.2°F-0.4°C 19.8°F-6.8°C 62% Calm Calm -- 30.35 in1027.8 mb 0.00 in0.0 mm 0.00 in0.0 mm 0.00 in0.0 mm
05:55 AM 31.1°F-0.5°C 19.9°F-6.7°C 63% Calm Calm -- 30.35 in1027.8 mb 0.00 in0.0 mm 0.00 in0.0 mm 0.00 in0.0 mm
06:00 AM 31.0°F-0.6°C 19.8°F-6.8°C 63% Calm Calm -- 30.35 in1027.8 mb 0.00 in0.0 mm 0.00 in0.0 mm 0.00 in0.0 mm
06:05 AM 30.9°F-0.6°C 19.8°F-6.8°C 63% Calm Calm -- 30.35 in1027.8 mb 0.00 in0.0 mm 0.00 in0.0 mm 0.00 in0.0 mm
06:10 AM 30.8°F-0.7°C 19.6°F-6.9°C 63% Calm Calm -- 30.35 in1027.8 mb 0.00 in0.0 mm 0.00 in0.0 mm 0.00 in0.0 mm
06:15 AM 30.8°F-0.7°C 19.6°F-6.9°C 63% Calm Calm -- 30.35 in1027.8 mb 0.00 in0.0 mm 0.00 in0.0 mm 0.00 in0.0 mm
06:20 AM 30.7°F-0.7°C 19.9°F-6.7°C 64% Calm Calm -- 30.36 in1028.1 mb 0.00 in0.0 mm 0.00 in0.0 mm 0.00 in0.0 mm
06:25 AM 30.5°F-0.8°C 19.9°F-6.7°C 64% Calm Calm -- 30.35 in1027.8 mb 0.00 in0.0 mm 0.00 in0.0 mm 0.00 in0.0 mm
06:30 AM 30.4°F-0.9°C 20.1°F-6.6°C 65% Calm Calm -- 30.36 in1028.1 mb 0.00 in0.0 mm 0.00 in0.0 mm 0.00 in0.0 mm
06:35 AM 30.3°F-0.9°C 20.1°F-6.6°C 65% Calm Calm -- 30.35 in1027.8 mb 0.00 in0.0 mm 0.00 in0.0 mm 0.00 in0.0 mm
06:40 AM 30.2°F-1.0°C 20.3°F-6.5°C 66% Calm Calm -- 30.36 in1028.1 mb 0.00 in0.0 mm 0.00 in0.0 mm 0.00 in0.0 mm
06:45 AM 30.1°F-1.1°C 20.1°F-6.6°C 66% Calm Calm -- 30.36 in1028.1 mb 0.00 in0.0 mm 0.00 in0.0 mm 0.00 in0.0 mm
06:50 AM 30.0°F-1.1°C 20.1°F-6.6°C 66% Calm Calm -- 30.36 in1028.1 mb 0.00 in0.0 mm 0.00 in0.0 mm 0.00 in0.0 mm
06:55 AM 30.0°F-1.1°C 20.1°F-6.6°C 66% Calm Calm -- 30.36 in1028.1 mb 0.00 in0.0 mm 0.00 in0.0 mm 0.00 in0.0 mm
07:00 AM 29.9°F-1.2°C 20.3°F-6.5°C 67% Calm Calm -- 30.36 in1028.1 mb 0.00 in0.0 mm 0.00 in0.0 mm 0.00 in0.0 mm
07:05 AM 29.9°F-1.2°C 20.3°F-6.5°C 67% Calm Calm -- 30.36 in1028.1 mb 0.00 in0.0 mm 0.00 in0.0 mm 0.00 in0.0 mm
07:10 AM 29.9°F-1.2°C 20.3°F-6.5°C 67% Calm Calm -- 30.36 in1028.1 mb 0.00 in0.0 mm 0.00 in0.0 mm 0.00 in0.0 mm
07:15 AM 29.8°F-1.2°C 20.3°F-6.5°C 67% Calm Calm -- 30.36 in1028.1 mb 0.00 in0.0 mm 0.00 in0.0 mm 0.00 in0.0 mm
07:20 AM 29.8°F-1.2°C 20.3°F-6.5°C 67% Calm Calm -- 30.36 in1028.1 mb 0.00 in0.0 mm 0.00 in0.0 mm 0.00 in0.0 mm
07:25 AM 29.8°F-1.2°C 20.3°F-6.5°C 67% Calm Calm -- 30.36 in1028.1 mb 0.00 in0.0 mm 0.00 in0.0 mm 0.00 in0.0 mm
07:30 AM 29.8°F-1.2°C 20.3°F-6.5°C 67% Calm Calm -- 30.36 in1028.1 mb 0.00 in0.0 mm 0.00 in0.0 mm 0.00 in0.0 mm
07:35 AM 29.8°F-1.2°C 20.7°F-6.3°C 68% Calm Calm -- 30.36 in1028.1 mb 0.00 in0.0 mm 0.00 in0.0 mm 0.00 in0.0 mm
07:40 AM 29.8°F-1.2°C 20.7°F-6.3°C 68% Calm Calm -- 30.36 in1028.1 mb 0.00 in0.0 mm 0.00 in0.0 mm 0.00 in0.0 mm
07:46 AM 29.8°F-1.2°C 20.7°F-6.3°C 68% Calm Calm -- 30.36 in1028.1 mb 0.00 in0.0 mm 0.00 in0.0 mm 0.00 in0.0 mm
07:50 AM 29.9°F-1.2°C 20.8°F-6.2°C 69% Calm Calm -- 30.36 in1028.1 mb 0.00 in0.0 mm 0.00 in0.0 mm 0.00 in0.0 mm
07:55 AM 30.0°F-1.1°C 21.0°F-6.1°C 69% Calm Calm -- 30.36 in1028.1 mb 0.00 in0.0 mm 0.00 in0.0 mm 0.00 in0.0 mm
08:00 AM 30.7°F-0.7°C 21.7°F-5.7°C 69% Calm Calm -- 30.37 in1028.4 mb 0.00 in0.0 mm 0.00 in0.0 mm 0.00 in0.0 mm
08:05 AM 31.4°F-0.3°C 22.1°F-5.5°C 68% Calm Calm -- 30.37 in1028.4 mb 0.00 in0.0 mm 0.00 in0.0 mm 0.00 in0.0 mm
08:10 AM 31.4°F-0.3°C 22.1°F-5.5°C 68% Calm Calm -- 30.37 in1028.4 mb 0.00 in0.0 mm 0.00 in0.0 mm 0.00 in0.0 mm
08:15 AM 31.3°F-0.4°C 22.3°F-5.4°C 69% Calm Calm -- 30.37 in1028.4 mb 0.00 in0.0 mm 0.00 in0.0 mm 0.00 in0.0 mm
08:20 AM 31.6°F-0.2°C 23.0°F-5.0°C 70% Calm Calm -- 30.38 in1028.8 mb 0.00 in0.0 mm 0.00 in0.0 mm 0.00 in0.0 mm
08:25 AM 31.9°F-0.1°C 22.5°F-5.3°C 68% Calm Calm -- 30.38 in1028.8 mb 0.00 in0.0 mm 0.00 in0.0 mm 0.00 in0.0 mm
08:30 AM 32.3°F0.2°C 22.6°F-5.2°C 67% Calm Calm -- 30.38 in1028.8 mb 0.00 in0.0 mm 0.00 in0.0 mm 0.00 in0.0 mm
08:35 AM 33.0°F0.6°C 23.0°F-5.0°C 66% Calm Calm -- 30.37 in1028.4 mb 0.00 in0.0 mm 0.00 in0.0 mm 0.00 in0.0 mm
08:40 AM 33.7°F0.9°C 23.2°F-4.9°C 65% Calm Calm -- 30.38 in1028.8 mb 0.00 in0.0 mm 0.00 in0.0 mm 0.00 in0.0 mm
08:45 AM 34.4°F1.3°C 23.9°F-4.5°C 65% Calm Calm -- 30.38 in1028.8 mb 0.00 in0.0 mm 0.00 in0.0 mm 0.00 in0.0 mm
08:50 AM 35.1°F1.7°C 24.4°F-4.2°C 65% Calm Calm -- 30.38 in1028.8 mb 0.00 in0.0 mm 0.00 in0.0 mm 0.00 in0.0 mm
08:55 AM 35.8°F2.1°C 24.8°F-4.0°C 64% Calm Calm -- 30.38 in1028.8 mb 0.00 in0.0 mm 0.00 in0.0 mm 0.00 in0.0 mm
09:00 AM 36.1°F2.3°C 24.8°F-4.0°C 63% Calm Calm 6.0 mph9.7 kmh 30.38 in1028.8 mb 0.00 in0.0 mm 0.00 in0.0 mm 0.00 in0.0 mm
09:05 AM 36.2°F2.3°C 24.8°F-4.0°C 63% 4.0 mph E6.4 kmh E -- 30.38 in1028.8 mb 0.00 in0.0 mm 0.00 in0.0 mm 0.00 in0.0 mm
09:10 AM 36.3°F2.4°C 25.0°F-3.9°C 63% 4.0 mph E6.4 kmh E -- 30.38 in1028.8 mb 0.00 in0.0 mm 0.00 in0.0 mm 0.00 in0.0 mm
09:15 AM 36.2°F2.3°C 24.8°F-4.0°C 63% 5.0 mph E8.0 kmh E -- 30.38 in1028.8 mb 0.00 in0.0 mm 0.00 in0.0 mm 0.00 in0.0 mm
09:20 AM 36.2°F2.3°C 24.8°F-4.0°C 63% 3.0 mph E4.8 kmh E -- 30.38 in1028.8 mb 0.00 in0.0 mm 0.00 in0.0 mm 0.00 in0.0 mm
09:25 AM 35.8°F2.1°C 24.4°F-4.2°C 63% 6.0 mph E9.7 kmh E 9.0 mph14.5 kmh 30.39 in1029.1 mb 0.00 in0.0 mm 0.00 in0.0 mm 0.00 in0.0 mm
09:30 AM 35.8°F2.1°C 24.8°F-4.0°C 64% 2.0 mph E3.2 kmh E -- 30.38 in1028.8 mb 0.00 in0.0 mm 0.00 in0.0 mm 0.00 in0.0 mm
09:35 AM 36.1°F2.3°C 25.2°F-3.8°C 64% Calm Calm -- 30.38 in1028.8 mb 0.00 in0.0 mm 0.00 in0.0 mm 0.00 in0.0 mm
09:40 AM 36.5°F2.5°C 25.5°F-3.6°C 64% Calm Calm -- 30.38 in1028.8 mb 0.00 in0.0 mm 0.00 in0.0 mm 0.00 in0.0 mm
09:45 AM 36.9°F2.7°C 26.2°F-3.2°C 65% 3.0 mph E4.8 kmh E -- 30.38 in1028.8 mb 0.00 in0.0 mm 0.00 in0.0 mm 0.00 in0.0 mm
09:50 AM 37.2°F2.9°C 27.0°F-2.8°C 66% 6.0 mph ESE9.7 kmh ESE 9.0 mph14.5 kmh 30.38 in1028.8 mb 0.00 in0.0 mm 0.00 in0.0 mm 0.00 in0.0 mm
09:55 AM 37.6°F3.1°C 26.6°F-3.0°C 64% 4.0 mph ESE6.4 kmh ESE -- 30.38 in1028.8 mb 0.00 in0.0 mm 0.00 in0.0 mm 0.00 in0.0 mm
10:00 AM 38.3°F3.5°C 26.8°F-2.9°C 63% Calm Calm -- 30.38 in1028.8 mb 0.00 in0.0 mm 0.00 in0.0 mm 0.00 in0.0 mm
10:05 AM 39.1°F3.9°C 27.1°F-2.7°C 62% Calm Calm -- 30.38 in1028.8 mb 0.00 in0.0 mm 0.00 in0.0 mm 0.00 in0.0 mm
10:10 AM 39.5°F4.2°C 27.7°F-2.4°C 62% Calm Calm -- 30.38 in1028.8 mb 0.00 in0.0 mm 0.00 in0.0 mm 0.00 in0.0 mm
10:15 AM 40.3°F4.6°C 27.9°F-2.3°C 61% 1.0 mph ESE1.6 kmh ESE 9.0 mph14.5 kmh 30.38 in1028.8 mb 0.00 in0.0 mm 0.00 in0.0 mm 0.00 in0.0 mm
10:20 AM 41.0°F5.0°C 27.9°F-2.3°C 59% 8.0 mph SE12.9 kmh SE -- 30.38 in1028.8 mb 0.00 in0.0 mm 0.00 in0.0 mm 0.00 in0.0 mm
10:25 AM 41.2°F5.1°C 27.5°F-2.5°C 58% 2.0 mph SSE3.2 kmh SSE -- 30.38 in1028.8 mb 0.00 in0.0 mm 0.00 in0.0 mm 0.00 in0.0 mm
10:30 AM 41.7°F5.4°C 27.7°F-2.4°C 57% 2.0 mph SSE3.2 kmh SSE -- 30.37 in1028.4 mb 0.00 in0.0 mm 0.00 in0.0 mm 0.00 in0.0 mm
10:35 AM 42.0°F5.6°C 27.5°F-2.5°C 56% 11.0 mph SSE17.7 kmh SSE -- 30.37 in1028.4 mb 0.00 in0.0 mm 0.00 in0.0 mm 0.00 in0.0 mm
10:40 AM 42.0°F5.6°C 27.1°F-2.7°C 55% 4.0 mph SSE6.4 kmh SSE 14.0 mph22.5 kmh 30.37 in1028.4 mb 0.00 in0.0 mm 0.00 in0.0 mm 0.00 in0.0 mm
10:45 AM 42.0°F5.6°C 27.1°F-2.7°C 55% 4.0 mph SSE6.4 kmh SSE -- 30.37 in1028.4 mb 0.00 in0.0 mm 0.00 in0.0 mm 0.00 in0.0 mm
10:50 AM 42.0°F5.6°C 27.1°F-2.7°C 55% 3.0 mph SSE4.8 kmh SSE -- 30.37 in1028.4 mb 0.00 in0.0 mm 0.00 in0.0 mm 0.00 in0.0 mm
10:55 AM 42.0°F5.6°C 27.5°F-2.5°C 56% 8.0 mph SSE12.9 kmh SSE -- 30.37 in1028.4 mb 0.00 in0.0 mm 0.00 in0.0 mm 0.00 in0.0 mm
11:00 AM 41.9°F5.5°C 27.0°F-2.8°C 55% 6.0 mph SSE9.7 kmh SSE -- 30.37 in1028.4 mb 0.00 in0.0 mm 0.00 in0.0 mm 0.00 in0.0 mm
11:05 AM 41.8°F5.4°C 27.1°F-2.7°C 56% 5.0 mph SSE8.0 kmh SSE 11.0 mph17.7 kmh 30.37 in1028.4 mb 0.00 in0.0 mm 0.00 in0.0 mm 0.00 in0.0 mm
11:10 AM 41.8°F5.4°C 27.1°F-2.7°C 56% 3.0 mph SSE4.8 kmh SSE -- 30.37 in1028.4 mb 0.00 in0.0 mm 0.00 in0.0 mm 0.00 in0.0 mm
11:15 AM 42.0°F5.6°C 28.0°F-2.2°C 57% 5.0 mph SSE8.0 kmh SSE -- 30.37 in1028.4 mb 0.00 in0.0 mm 0.00 in0.0 mm 0.00 in0.0 mm
11:20 AM 42.0°F5.6°C 27.5°F-2.5°C 56% 6.0 mph SSE9.7 kmh SSE -- 30.37 in1028.4 mb 0.00 in0.0 mm 0.00 in0.0 mm 0.00 in0.0 mm
11:25 AM 42.2°F5.7°C 28.0°F-2.2°C 57% Calm Calm -- 30.37 in1028.4 mb 0.00 in0.0 mm 0.00 in0.0 mm 0.00 in0.0 mm
11:30 AM 42.4°F5.8°C 27.9°F-2.3°C 56% 3.0 mph SSE4.8 kmh SSE 9.0 mph14.5 kmh 30.36 in1028.1 mb 0.00 in0.0 mm 0.00 in0.0 mm 0.00 in0.0 mm
11:35 AM 42.5°F5.8°C 27.9°F-2.3°C 56% 3.0 mph S4.8 kmh S -- 30.36 in1028.1 mb 0.00 in0.0 mm 0.00 in0.0 mm 0.00 in0.0 mm
11:40 AM 42.6°F5.9°C 27.7°F-2.4°C 55% 5.0 mph S8.0 kmh S -- 30.36 in1028.1 mb 0.00 in0.0 mm 0.00 in0.0 mm 0.00 in0.0 mm
11:45 AM 42.8°F6.0°C 27.7°F-2.4°C 55% Calm Calm -- 30.36 in1028.1 mb 0.00 in0.0 mm 0.00 in0.0 mm 0.00 in0.0 mm
11:50 AM 43.2°F6.2°C 28.6°F-1.9°C 56% 2.0 mph SSE3.2 kmh SSE -- 30.36 in1028.1 mb 0.00 in0.0 mm 0.00 in0.0 mm 0.00 in0.0 mm
11:55 AM 43.5°F6.4°C 28.4°F-2.0°C 55% Calm Calm 7.0 mph11.3 kmh 30.36 in1028.1 mb 0.00 in0.0 mm 0.00 in0.0 mm 0.00 in0.0 mm
12:00 PM 44.0°F6.7°C 28.6°F-1.9°C 54% 3.0 mph SSE4.8 kmh SSE -- 30.36 in1028.1 mb 0.00 in0.0 mm 0.00 in0.0 mm 0.00 in0.0 mm
12:05 PM 44.2°F6.8°C 28.6°F-1.9°C 54% 3.0 mph S4.8 kmh S -- 30.36 in1028.1 mb 0.00 in0.0 mm 0.00 in0.0 mm 0.00 in0.0 mm
12:10 PM 44.6°F7.0°C 28.6°F-1.9°C 53% 4.0 mph S6.4 kmh S -- 30.35 in1027.8 mb 0.00 in0.0 mm 0.00 in0.0 mm 0.00 in0.0 mm
12:15 PM 44.9°F7.2°C 28.9°F-1.7°C 53% 5.0 mph S8.0 kmh S -- 30.35 in1027.8 mb 0.00 in0.0 mm 0.00 in0.0 mm 0.00 in0.0 mm
12:20 PM 45.2°F7.3°C 29.1°F-1.6°C 53% 9.0 mph S14.5 kmh S 10.0 mph16.1 kmh 30.35 in1027.8 mb 0.00 in0.0 mm 0.00 in0.0 mm 0.00 in0.0 mm
12:25 PM 46.1°F7.8°C 28.9°F-1.7°C 51% 5.0 mph S8.0 kmh S -- 30.35 in1027.8 mb 0.00 in0.0 mm 0.00 in0.0 mm 0.00 in0.0 mm
12:30 PM 46.3°F7.9°C 29.1°F-1.6°C 51% 5.0 mph S8.0 kmh S -- 30.35 in1027.8 mb 0.00 in0.0 mm 0.00 in0.0 mm 0.00 in0.0 mm
12:35 PM 46.2°F7.9°C 29.1°F-1.6°C 51% 4.0 mph S6.4 kmh S -- 30.34 in1027.4 mb 0.00 in0.0 mm 0.00 in0.0 mm 0.00 in0.0 mm
12:40 PM 46.2°F7.9°C 29.1°F-1.6°C 51% 6.0 mph S9.7 kmh S -- 30.34 in1027.4 mb 0.00 in0.0 mm 0.00 in0.0 mm 0.00 in0.0 mm
12:45 PM 46.3°F7.9°C 29.1°F-1.6°C 51% 4.0 mph S6.4 kmh S 12.0 mph19.3 kmh 30.34 in1027.4 mb 0.00 in0.0 mm 0.00 in0.0 mm 0.00 in0.0 mm
12:50 PM 46.4°F8.0°C 29.3°F-1.5°C 51% 5.0 mph S8.0 kmh S -- 30.34 in1027.4 mb 0.00 in0.0 mm 0.00 in0.0 mm 0.00 in0.0 mm
12:55 PM 46.6°F8.1°C 29.5°F-1.4°C 51% Calm Calm -- 30.34 in1027.4 mb 0.00 in0.0 mm 0.00 in0.0 mm 0.00 in0.0 mm
01:00 PM 47.0°F8.3°C 29.3°F-1.5°C 50% 7.0 mph S11.3 kmh S -- 30.34 in1027.4 mb 0.00 in0.0 mm 0.00 in0.0 mm 0.00 in0.0 mm
01:05 PM 47.1°F8.4°C 30.0°F-1.1°C 51% Calm Calm -- 30.34 in1027.4 mb 0.00 in0.0 mm 0.00 in0.0 mm 0.00 in0.0 mm
01:10 PM 47.3°F8.5°C 29.7°F-1.3°C 50% Calm Calm 10.0 mph16.1 kmh 30.34 in1027.4 mb 0.00 in0.0 mm 0.00 in0.0 mm 0.00 in0.0 mm
01:15 PM 47.6°F8.7°C 29.5°F-1.4°C 49% Calm Calm -- 30.34 in1027.4 mb 0.00 in0.0 mm 0.00 in0.0 mm 0.00 in0.0 mm
01:20 PM 47.7°F8.7°C 29.5°F-1.4°C 49% 4.0 mph S6.4 kmh S -- 30.34 in1027.4 mb 0.00 in0.0 mm 0.00 in0.0 mm 0.00 in0.0 mm
01:25 PM 47.8°F8.8°C 29.7°F-1.3°C 49% 1.0 mph S1.6 kmh S -- 30.34 in1027.4 mb 0.00 in0.0 mm 0.00 in0.0 mm 0.00 in0.0 mm
01:30 PM 48.0°F8.9°C 29.8°F-1.2°C 49% Calm Calm -- 30.33 in1027.1 mb 0.00 in0.0 mm 0.00 in0.0 mm 0.00 in0.0 mm
01:35 PM 48.2°F9.0°C 30.0°F-1.1°C 49% 6.0 mph S9.7 kmh S 5.0 mph8.0 kmh 30.33 in1027.1 mb 0.00 in0.0 mm 0.00 in0.0 mm 0.00 in0.0 mm
01:40 PM 48.4°F9.1°C 29.7°F-1.3°C 48% Calm Calm -- 30.33 in1027.1 mb 0.00 in0.0 mm 0.00 in0.0 mm 0.00 in0.0 mm
01:45 PM 49.5°F9.7°C 31.1°F-0.5°C 49% Calm Calm -- 30.32 in1026.8 mb 0.00 in0.0 mm 0.00 in0.0 mm 0.00 in0.0 mm
01:50 PM 49.6°F9.8°C 30.2°F-1.0°C 47% 1.0 mph S1.6 kmh S -- 30.32 in1026.8 mb 0.00 in0.0 mm 0.00 in0.0 mm 0.00 in0.0 mm
01:55 PM 49.5°F9.7°C 30.0°F-1.1°C 47% Calm Calm -- 30.32 in1026.8 mb 0.00 in0.0 mm 0.00 in0.0 mm 0.00 in0.0 mm
02:00 PM 50.2°F10.1°C 30.2°F-1.0°C 46% Calm Calm 1.0 mph1.6 kmh 30.31 in1026.4 mb 0.00 in0.0 mm 0.00 in0.0 mm 0.00 in0.0 mm
02:05 PM 50.3°F10.2°C 30.4°F-0.9°C 46% 6.0 mph ESE9.7 kmh ESE -- 30.31 in1026.4 mb 0.00 in0.0 mm 0.00 in0.0 mm 0.00 in0.0 mm
02:10 PM 50.7°F10.4°C 30.7°F-0.7°C 46% 6.0 mph ESE9.7 kmh ESE -- 30.30 in1026.1 mb 0.00 in0.0 mm 0.00 in0.0 mm 0.00 in0.0 mm
02:15 PM 51.0°F10.6°C 32.0°F0.0°C 48% Calm Calm -- 30.30 in1026.1 mb 0.00 in0.0 mm 0.00 in0.0 mm 0.00 in0.0 mm
02:20 PM 50.8°F10.4°C 30.2°F-1.0°C 45% 8.0 mph SE12.9 kmh SE -- 30.30 in1026.1 mb 0.00 in0.0 mm 0.00 in0.0 mm 0.00 in0.0 mm
02:25 PM 50.8°F10.4°C 30.7°F-0.7°C 46% 3.0 mph SE4.8 kmh SE 9.0 mph14.5 kmh 30.30 in1026.1 mb 0.00 in0.0 mm 0.00 in0.0 mm 0.00 in0.0 mm
02:30 PM 51.1°F10.6°C 31.1°F-0.5°C 46% Calm Calm -- 30.29 in1025.7 mb 0.00 in0.0 mm 0.00 in0.0 mm 0.00 in0.0 mm
02:35 PM 51.2°F10.7°C 31.6°F-0.2°C 47% Calm Calm -- 30.29 in1025.7 mb 0.00 in0.0 mm 0.00 in0.0 mm 0.00 in0.0 mm
02:40 PM 51.5°F10.8°C 31.3°F-0.4°C 46% Calm Calm -- 30.29 in1025.7 mb 0.00 in0.0 mm 0.00 in0.0 mm 0.00 in0.0 mm
02:45 PM 51.3°F10.7°C 30.7°F-0.7°C 45% 9.0 mph SE14.5 kmh SE -- 30.29 in1025.7 mb 0.00 in0.0 mm 0.00 in0.0 mm 0.00 in0.0 mm
02:50 PM 51.5°F10.8°C 31.8°F-0.1°C 47% Calm Calm 10.0 mph16.1 kmh 30.28 in1025.4 mb 0.00 in0.0 mm 0.00 in0.0 mm 0.00 in0.0 mm
02:55 PM 52.2°F11.2°C 30.9°F-0.6°C 44% 5.0 mph SE8.0 kmh SE -- 30.28 in1025.4 mb 0.00 in0.0 mm 0.00 in0.0 mm 0.00 in0.0 mm
03:00 PM 52.3°F11.3°C 31.6°F-0.2°C 45% 4.0 mph SSE6.4 kmh SSE -- 30.28 in1025.4 mb 0.00 in0.0 mm 0.00 in0.0 mm 0.00 in0.0 mm
03:05 PM 52.1°F11.2°C 31.5°F-0.3°C 45% Calm Calm -- 30.27 in1025.1 mb 0.00 in0.0 mm 0.00 in0.0 mm 0.00 in0.0 mm
03:10 PM 51.8°F11.0°C 31.1°F-0.5°C 45% Calm Calm -- 30.27 in1025.1 mb 0.00 in0.0 mm 0.00 in0.0 mm 0.00 in0.0 mm
03:15 PM 52.0°F11.1°C 31.3°F-0.4°C 45% Calm Calm 1.0 mph1.6 kmh 30.27 in1025.1 mb 0.00 in0.0 mm 0.00 in0.0 mm 0.00 in0.0 mm
03:20 PM 52.1°F11.2°C 30.9°F-0.6°C 44% Calm Calm -- 30.27 in1025.1 mb 0.00 in0.0 mm 0.00 in0.0 mm 0.00 in0.0 mm
03:25 PM 52.2°F11.2°C 30.9°F-0.6°C 44% Calm Calm -- 30.27 in1025.1 mb 0.00 in0.0 mm 0.00 in0.0 mm 0.00 in0.0 mm
03:30 PM 52.1°F11.2°C 30.4°F-0.9°C 43% 4.0 mph SE6.4 kmh SE -- 30.27 in1025.1 mb 0.00 in0.0 mm 0.00 in0.0 mm 0.00 in0.0 mm
03:35 PM 51.9°F11.1°C 31.8°F-0.1°C 46% Calm Calm -- 30.27 in1025.1 mb 0.00 in0.0 mm 0.00 in0.0 mm 0.00 in0.0 mm
03:40 PM 52.0°F11.1°C 32.4°F0.2°C 47% Calm Calm 5.0 mph8.0 kmh 30.27 in1025.1 mb 0.00 in0.0 mm 0.00 in0.0 mm 0.00 in0.0 mm
03:45 PM 51.9°F11.1°C 32.4°F0.2°C 47% Calm Calm -- 30.26 in1024.7 mb 0.00 in0.0 mm 0.00 in0.0 mm 0.00 in0.0 mm
03:50 PM 52.0°F11.1°C 32.9°F0.5°C 48% Calm Calm -- 30.26 in1024.7 mb 0.00 in0.0 mm 0.00 in0.0 mm 0.00 in0.0 mm
03:55 PM 52.1°F11.2°C 33.1°F0.6°C 48% Calm Calm -- 30.26 in1024.7 mb 0.00 in0.0 mm 0.00 in0.0 mm 0.00 in0.0 mm
04:00 PM 52.2°F11.2°C 34.5°F1.4°C 51% Calm Calm -- 30.25 in1024.4 mb 0.00 in0.0 mm 0.00 in0.0 mm 0.00 in0.0 mm
04:05 PM 52.1°F11.2°C 32.5°F0.3°C 47% 1.0 mph SE1.6 kmh SE 6.0 mph9.7 kmh 30.25 in1024.4 mb 0.00 in0.0 mm 0.00 in0.0 mm 0.00 in0.0 mm
04:10 PM 52.2°F11.2°C 33.1°F0.6°C 48% Calm Calm -- 30.25 in1024.4 mb 0.00 in0.0 mm 0.00 in0.0 mm 0.00 in0.0 mm
04:15 PM 52.4°F11.3°C 33.3°F0.7°C 48% Calm Calm -- 30.25 in1024.4 mb 0.00 in0.0 mm 0.00 in0.0 mm 0.00 in0.0 mm
04:20 PM 52.7°F11.5°C 32.5°F0.3°C 46% 2.0 mph SE3.2 kmh SE -- 30.25 in1024.4 mb 0.00 in0.0 mm 0.00 in0.0 mm 0.00 in0.0 mm
04:25 PM 52.6°F11.4°C 32.4°F0.2°C 46% 9.0 mph ESE14.5 kmh ESE -- 30.24 in1024.0 mb 0.00 in0.0 mm 0.00 in0.0 mm 0.00 in0.0 mm
04:30 PM 52.5°F11.4°C 32.4°F0.2°C 46% 4.0 mph ESE6.4 kmh ESE 10.0 mph16.1 kmh 30.24 in1024.0 mb 0.00 in0.0 mm 0.00 in0.0 mm 0.00 in0.0 mm
04:35 PM 52.6°F11.4°C 31.8°F-0.1°C 45% Calm Calm -- 30.24 in1024.0 mb 0.00 in0.0 mm 0.00 in0.0 mm 0.00 in0.0 mm
04:40 PM 52.7°F11.5°C 32.5°F0.3°C 46% 3.0 mph ESE4.8 kmh ESE -- 30.23 in1023.7 mb 0.00 in0.0 mm 0.00 in0.0 mm 0.00 in0.0 mm
04:45 PM 52.9°F11.6°C 32.2°F0.1°C 45% 4.0 mph ESE6.4 kmh ESE -- 30.23 in1023.7 mb 0.00 in0.0 mm 0.00 in0.0 mm 0.00 in0.0 mm
04:50 PM 53.0°F11.7°C 32.9°F0.5°C 46% 5.0 mph ESE8.0 kmh ESE -- 30.23 in1023.7 mb 0.00 in0.0 mm 0.00 in0.0 mm 0.00 in0.0 mm
04:55 PM 53.0°F11.7°C 32.9°F0.5°C 46% 4.0 mph E6.4 kmh E 10.0 mph16.1 kmh 30.23 in1023.7 mb 0.00 in0.0 mm 0.00 in0.0 mm 0.00 in0.0 mm
05:00 PM 53.0°F11.7°C 32.4°F0.2°C 45% 3.0 mph E4.8 kmh E -- 30.23 in1023.7 mb 0.00 in0.0 mm 0.00 in0.0 mm 0.00 in0.0 mm
05:05 PM 53.0°F11.7°C 32.4°F0.2°C 45% Calm Calm -- 30.23 in1023.7 mb 0.00 in0.0 mm 0.00 in0.0 mm 0.00 in0.0 mm
05:10 PM 53.1°F11.7°C 32.9°F0.5°C 46% Calm Calm -- 30.23 in1023.7 mb 0.00 in0.0 mm 0.00 in0.0 mm 0.00 in0.0 mm
05:15 PM 53.1°F11.7°C 32.9°F0.5°C 46% Calm Calm -- 30.22 in1023.4 mb 0.00 in0.0 mm 0.00 in0.0 mm 0.00 in0.0 mm
05:20 PM 53.1°F11.7°C 32.9°F0.5°C 46% 7.0 mph E11.3 kmh E 12.0 mph19.3 kmh 30.22 in1023.4 mb 0.00 in0.0 mm 0.00 in0.0 mm 0.00 in0.0 mm
05:25 PM 53.1°F11.7°C 32.9°F0.5°C 46% 5.0 mph E8.0 kmh E -- 30.22 in1023.4 mb 0.00 in0.0 mm 0.00 in0.0 mm 0.00 in0.0 mm
05:30 PM 53.1°F11.7°C 32.4°F0.2°C 45% 5.0 mph E8.0 kmh E -- 30.22 in1023.4 mb 0.00 in0.0 mm 0.00 in0.0 mm 0.00 in0.0 mm
05:35 PM 53.0°F11.7°C 32.4°F0.2°C 45% 4.0 mph E6.4 kmh E -- 30.22 in1023.4 mb 0.00 in0.0 mm 0.00 in0.0 mm 0.00 in0.0 mm
05:40 PM 52.9°F11.6°C 32.7°F0.4°C 46% 2.0 mph E3.2 kmh E -- 30.22 in1023.4 mb 0.00 in0.0 mm 0.00 in0.0 mm 0.00 in0.0 mm
05:45 PM 52.9°F11.6°C 32.7°F0.4°C 46% 5.0 mph E8.0 kmh E 9.0 mph14.5 kmh 30.21 in1023.0 mb 0.00 in0.0 mm 0.00 in0.0 mm 0.00 in0.0 mm
05:50 PM 52.8°F11.6°C 32.7°F0.4°C 46% Calm Calm -- 30.21 in1023.0 mb 0.00 in0.0 mm 0.00 in0.0 mm 0.00 in0.0 mm
05:55 PM 52.8°F11.6°C 32.7°F0.4°C 46% Calm Calm -- 30.21 in1023.0 mb 0.00 in0.0 mm 0.00 in0.0 mm 0.00 in0.0 mm
06:00 PM 52.6°F11.4°C 32.9°F0.5°C 47% Calm Calm -- 30.21 in1023.0 mb 0.00 in0.0 mm 0.00 in0.0 mm 0.00 in0.0 mm
06:05 PM 52.3°F11.3°C 33.3°F0.7°C 48% 1.0 mph E1.6 kmh E -- 30.21 in1023.0 mb 0.00 in0.0 mm 0.00 in0.0 mm 0.00 in0.0 mm
06:10 PM 52.2°F11.2°C 33.6°F0.9°C 49% Calm Calm 5.0 mph8.0 kmh 30.21 in1023.0 mb 0.00 in0.0 mm 0.00 in0.0 mm 0.00 in0.0 mm
06:15 PM 52.0°F11.1°C 33.4°F0.8°C 49% Calm Calm -- 30.21 in1023.0 mb 0.00 in0.0 mm 0.00 in0.0 mm 0.00 in0.0 mm
06:20 PM 51.8°F11.0°C 33.8°F1.0°C 50% Calm Calm -- 30.21 in1023.0 mb 0.00 in0.0 mm 0.00 in0.0 mm 0.00 in0.0 mm
06:25 PM 51.5°F10.8°C 32.9°F0.5°C 49% 4.0 mph E6.4 kmh E -- 30.21 in1023.0 mb 0.00 in0.0 mm 0.00 in0.0 mm 0.00 in0.0 mm
06:30 PM 51.1°F10.6°C 32.5°F0.3°C 49% Calm Calm -- 30.22 in1023.4 mb 0.00 in0.0 mm 0.00 in0.0 mm 0.00 in0.0 mm
06:35 PM 50.8°F10.4°C 32.7°F0.4°C 50% Calm Calm 6.0 mph9.7 kmh 30.21 in1023.0 mb 0.00 in0.0 mm 0.00 in0.0 mm 0.00 in0.0 mm
06:40 PM 50.6°F10.3°C 32.5°F0.3°C 50% Calm Calm -- 30.21 in1023.0 mb 0.00 in0.0 mm 0.00 in0.0 mm 0.00 in0.0 mm
06:45 PM 50.4°F10.2°C 32.9°F0.5°C 51% Calm Calm -- 30.21 in1023.0 mb 0.00 in0.0 mm 0.00 in0.0 mm 0.00 in0.0 mm
06:50 PM 50.2°F10.1°C 32.7°F0.4°C 51% 2.0 mph E3.2 kmh E -- 30.21 in1023.0 mb 0.00 in0.0 mm 0.00 in0.0 mm 0.00 in0.0 mm
06:55 PM 50.0°F10.0°C 32.5°F0.3°C 51% Calm Calm -- 30.21 in1023.0 mb 0.00 in0.0 mm 0.00 in0.0 mm 0.00 in0.0 mm
07:00 PM 49.8°F9.9°C 32.4°F0.2°C 51% Calm Calm 4.0 mph6.4 kmh 30.21 in1023.0 mb 0.00 in0.0 mm 0.00 in0.0 mm 0.00 in0.0 mm
07:05 PM 49.6°F9.8°C 32.7°F0.4°C 52% Calm Calm -- 30.21 in1023.0 mb 0.00 in0.0 mm 0.00 in0.0 mm 0.00 in0.0 mm
07:10 PM 49.5°F9.7°C 32.5°F0.3°C 52% Calm Calm -- 30.21 in1023.0 mb 0.00 in0.0 mm 0.00 in0.0 mm 0.00 in0.0 mm
07:15 PM 49.4°F9.7°C 32.2°F0.1°C 51% Calm Calm -- 30.21 in1023.0 mb 0.00 in0.0 mm 0.00 in0.0 mm 0.00 in0.0 mm
07:20 PM 49.2°F9.6°C 32.4°F0.2°C 52% Calm Calm -- 30.21 in1023.0 mb 0.00 in0.0 mm 0.00 in0.0 mm 0.00 in0.0 mm
07:25 PM 49.1°F9.5°C 32.2°F0.1°C 52% Calm Calm 1.0 mph1.6 kmh 30.21 in1023.0 mb 0.00 in0.0 mm 0.00 in0.0 mm 0.00 in0.0 mm
07:30 PM 49.0°F9.4°C 32.0°F0.0°C 52% Calm Calm -- 30.21 in1023.0 mb 0.00 in0.0 mm 0.00 in0.0 mm 0.00 in0.0 mm
07:35 PM 48.9°F9.4°C 32.0°F0.0°C 52% Calm Calm -- 30.20 in1022.7 mb 0.00 in0.0 mm 0.00 in0.0 mm 0.00 in0.0 mm
07:40 PM 48.7°F9.3°C 31.8°F-0.1°C 52% Calm Calm -- 30.20 in1022.7 mb 0.00 in0.0 mm 0.00 in0.0 mm 0.00 in0.0 mm
07:45 PM 48.5°F9.2°C 31.8°F-0.1°C 52% Calm Calm -- 30.20 in1022.7 mb 0.00 in0.0 mm 0.00 in0.0 mm 0.00 in0.0 mm
07:50 PM 48.4°F9.1°C 31.6°F-0.2°C 52% Calm Calm 1.0 mph1.6 kmh 30.20 in1022.7 mb 0.00 in0.0 mm 0.00 in0.0 mm 0.00 in0.0 mm
07:55 PM 48.3°F9.1°C 31.6°F-0.2°C 52% Calm Calm -- 30.20 in1022.7 mb 0.00 in0.0 mm 0.00 in0.0 mm 0.00 in0.0 mm
08:00 PM 48.2°F9.0°C 31.8°F-0.1°C 53% Calm Calm -- 30.20 in1022.7 mb 0.00 in0.0 mm 0.00 in0.0 mm 0.00 in0.0 mm
08:05 PM 48.1°F8.9°C 31.6°F-0.2°C 53% Calm Calm -- 30.20 in1022.7 mb 0.00 in0.0 mm 0.00 in0.0 mm 0.00 in0.0 mm
08:10 PM 48.0°F8.9°C 31.6°F-0.2°C 53% Calm Calm -- 30.19 in1022.4 mb 0.00 in0.0 mm 0.00 in0.0 mm 0.00 in0.0 mm
08:15 PM 47.8°F8.8°C 31.5°F-0.3°C 53% Calm Calm 4.0 mph6.4 kmh 30.19 in1022.4 mb 0.00 in0.0 mm 0.00 in0.0 mm 0.00 in0.0 mm
08:20 PM 47.6°F8.7°C 31.5°F-0.3°C 53% Calm Calm -- 30.19 in1022.4 mb 0.00 in0.0 mm 0.00 in0.0 mm 0.00 in0.0 mm
08:25 PM 47.5°F8.6°C 31.6°F-0.2°C 54% Calm Calm -- 30.19 in1022.4 mb 0.00 in0.0 mm 0.00 in0.0 mm 0.00 in0.0 mm
08:30 PM 47.4°F8.6°C 31.3°F-0.4°C 53% 2.0 mph E3.2 kmh E -- 30.19 in1022.4 mb 0.00 in0.0 mm 0.00 in0.0 mm 0.00 in0.0 mm
08:35 PM 47.4°F8.6°C 31.3°F-0.4°C 53% 1.0 mph E1.6 kmh E -- 30.19 in1022.4 mb 0.00 in0.0 mm 0.00 in0.0 mm 0.00 in0.0 mm
08:40 PM 47.3°F8.5°C 31.1°F-0.5°C 53% 10.0 mph E16.1 kmh E 7.0 mph11.3 kmh 30.19 in1022.4 mb 0.00 in0.0 mm 0.00 in0.0 mm 0.00 in0.0 mm
08:45 PM 47.4°F8.6°C 30.7°F-0.7°C 52% 7.0 mph E11.3 kmh E -- 30.19 in1022.4 mb 0.00 in0.0 mm 0.00 in0.0 mm 0.00 in0.0 mm
08:50 PM 47.4°F8.6°C 30.7°F-0.7°C 52% 2.0 mph E3.2 kmh E -- 30.19 in1022.4 mb 0.00 in0.0 mm 0.00 in0.0 mm 0.00 in0.0 mm
08:55 PM 47.4°F8.6°C 30.7°F-0.7°C 52% 1.0 mph E1.6 kmh E -- 30.19 in1022.4 mb 0.00 in0.0 mm 0.00 in0.0 mm 0.00 in0.0 mm
09:00 PM 47.4°F8.6°C 30.2°F-1.0°C 51% 2.0 mph ESE3.2 kmh ESE -- 30.19 in1022.4 mb 0.00 in0.0 mm 0.00 in0.0 mm 0.00 in0.0 mm
09:05 PM 47.4°F8.6°C 30.7°F-0.7°C 52% 5.0 mph ESE8.0 kmh ESE 10.0 mph16.1 kmh 30.19 in1022.4 mb 0.00 in0.0 mm 0.00 in0.0 mm 0.00 in0.0 mm
09:10 PM 47.4°F8.6°C 30.7°F-0.7°C 52% Calm Calm -- 30.19 in1022.4 mb 0.00 in0.0 mm 0.00 in0.0 mm 0.00 in0.0 mm
09:15 PM 47.3°F8.5°C 30.6°F-0.8°C 52% 3.0 mph ESE4.8 kmh ESE -- 30.18 in1022.0 mb 0.00 in0.0 mm 0.00 in0.0 mm 0.00 in0.0 mm
09:20 PM 47.2°F8.4°C 30.4°F-0.9°C 52% Calm Calm -- 30.18 in1022.0 mb 0.00 in0.0 mm 0.00 in0.0 mm 0.00 in0.0 mm
09:25 PM 47.1°F8.4°C 30.4°F-0.9°C 52% 1.0 mph ESE1.6 kmh ESE -- 30.18 in1022.0 mb 0.00 in0.0 mm 0.00 in0.0 mm 0.00 in0.0 mm
09:30 PM 47.1°F8.4°C 30.4°F-0.9°C 52% 5.0 mph ESE8.0 kmh ESE 10.0 mph16.1 kmh 30.18 in1022.0 mb 0.00 in0.0 mm 0.00 in0.0 mm 0.00 in0.0 mm
09:35 PM 47.0°F8.3°C 30.7°F-0.7°C 53% Calm Calm -- 30.18 in1022.0 mb 0.00 in0.0 mm 0.00 in0.0 mm 0.00 in0.0 mm
09:40 PM 46.9°F8.3°C 30.7°F-0.7°C 53% Calm Calm -- 30.18 in1022.0 mb 0.00 in0.0 mm 0.00 in0.0 mm 0.00 in0.0 mm
09:45 PM 46.8°F8.2°C 30.6°F-0.8°C 53% Calm Calm -- 30.18 in1022.0 mb 0.00 in0.0 mm 0.00 in0.0 mm 0.00 in0.0 mm
09:50 PM 46.6°F8.1°C 30.4°F-0.9°C 53% Calm Calm -- 30.18 in1022.0 mb 0.00 in0.0 mm 0.00 in0.0 mm 0.00 in0.0 mm
09:55 PM 46.5°F8.1°C 30.9°F-0.6°C 54% 2.0 mph ESE3.2 kmh ESE 9.0 mph14.5 kmh 30.18 in1022.0 mb 0.00 in0.0 mm 0.00 in0.0 mm 0.00 in0.0 mm
10:00 PM 46.4°F8.0°C 30.7°F-0.7°C 54% 2.0 mph ESE3.2 kmh ESE -- 30.17 in1021.7 mb 0.00 in0.0 mm 0.00 in0.0 mm 0.00 in0.0 mm
10:05 PM 46.3°F7.9°C 30.6°F-0.8°C 54% Calm Calm -- 30.17 in1021.7 mb 0.00 in0.0 mm 0.00 in0.0 mm 0.00 in0.0 mm
10:10 PM 46.2°F7.9°C 30.6°F-0.8°C 54% Calm Calm -- 30.17 in1021.7 mb 0.00 in0.0 mm 0.00 in0.0 mm 0.00 in0.0 mm
10:15 PM 46.1°F7.8°C 30.7°F-0.7°C 55% 4.0 mph ESE6.4 kmh ESE -- 30.17 in1021.7 mb 0.00 in0.0 mm 0.00 in0.0 mm 0.00 in0.0 mm
10:20 PM 46.0°F7.8°C 30.7°F-0.7°C 55% Calm Calm 6.0 mph9.7 kmh 30.17 in1021.7 mb 0.00 in0.0 mm 0.00 in0.0 mm 0.00 in0.0 mm
10:25 PM 45.8°F7.7°C 30.6°F-0.8°C 55% Calm Calm -- 30.17 in1021.7 mb 0.00 in0.0 mm 0.00 in0.0 mm 0.00 in0.0 mm
10:30 PM 45.6°F7.6°C 30.9°F-0.6°C 56% Calm Calm -- 30.17 in1021.7 mb 0.00 in0.0 mm 0.00 in0.0 mm 0.00 in0.0 mm
10:35 PM 45.4°F7.4°C 30.6°F-0.8°C 56% 4.0 mph ESE6.4 kmh ESE -- 30.17 in1021.7 mb 0.00 in0.0 mm 0.00 in0.0 mm 0.00 in0.0 mm
10:40 PM 45.2°F7.3°C 30.4°F-0.9°C 56% 1.0 mph ESE1.6 kmh ESE -- 30.17 in1021.7 mb 0.00 in0.0 mm 0.00 in0.0 mm 0.00 in0.0 mm
10:45 PM 45.1°F7.3°C 30.7°F-0.7°C 57% Calm Calm 10.0 mph16.1 kmh 30.17 in1021.7 mb 0.00 in0.0 mm 0.00 in0.0 mm 0.00 in0.0 mm
10:50 PM 44.9°F7.2°C 30.7°F-0.7°C 57% Calm Calm -- 30.17 in1021.7 mb 0.00 in0.0 mm 0.00 in0.0 mm 0.00 in0.0 mm
10:55 PM 44.8°F7.1°C 30.6°F-0.8°C 57% Calm Calm -- 30.17 in1021.7 mb 0.00 in0.0 mm 0.00 in0.0 mm 0.00 in0.0 mm
11:00 PM 44.7°F7.1°C 30.6°F-0.8°C 57% Calm Calm -- 30.17 in1021.7 mb 0.00 in0.0 mm 0.00 in0.0 mm 0.00 in0.0 mm
11:05 PM 44.7°F7.1°C 30.6°F-0.8°C 57% 2.0 mph SE3.2 kmh SE -- 30.17 in1021.7 mb 0.00 in0.0 mm 0.00 in0.0 mm 0.00 in0.0 mm
11:10 PM 44.7°F7.1°C 30.6°F-0.8°C 57% 1.0 mph SE1.6 kmh SE 10.0 mph16.1 kmh 30.17 in1021.7 mb 0.00 in0.0 mm 0.00 in0.0 mm 0.00 in0.0 mm
11:15 PM 44.8°F7.1°C 30.6°F-0.8°C 57% Calm Calm -- 30.17 in1021.7 mb 0.00 in0.0 mm 0.00 in0.0 mm 0.00 in0.0 mm
11:20 PM 44.9°F7.2°C 30.7°F-0.7°C 57% 3.0 mph SE4.8 kmh SE -- 30.17 in1021.7 mb 0.00 in0.0 mm 0.00 in0.0 mm 0.00 in0.0 mm
11:25 PM 45.0°F7.2°C 31.1°F-0.5°C 58% 2.0 mph SE3.2 kmh SE -- 30.16 in1021.3 mb 0.00 in0.0 mm 0.00 in0.0 mm 0.00 in0.0 mm
11:30 PM 45.0°F7.2°C 31.1°F-0.5°C 58% 3.0 mph SE4.8 kmh SE -- 30.16 in1021.3 mb 0.00 in0.0 mm 0.00 in0.0 mm 0.00 in0.0 mm
11:35 PM 45.1°F7.3°C 30.7°F-0.7°C 57% 4.0 mph SE6.4 kmh SE 9.0 mph14.5 kmh 30.16 in1021.3 mb 0.00 in0.0 mm 0.00 in0.0 mm 0.00 in0.0 mm
11:40 PM 45.2°F7.3°C 30.7°F-0.7°C 57% 11.0 mph SE17.7 kmh SE -- 30.16 in1021.3 mb 0.00 in0.0 mm 0.00 in0.0 mm 0.00 in0.0 mm
11:45 PM 45.3°F7.4°C 30.9°F-0.6°C 57% 1.0 mph SE1.6 kmh SE -- 30.16 in1021.3 mb 0.00 in0.0 mm 0.00 in0.0 mm 0.00 in0.0 mm
11:50 PM 45.5°F7.5°C 31.1°F-0.5°C 57% 6.0 mph SSE9.7 kmh SSE -- 30.15 in1021.0 mb 0.00 in0.0 mm 0.00 in0.0 mm 0.00 in0.0 mm
11:55 PM 45.7°F7.6°C 31.3°F-0.4°C 57% 5.0 mph SSE8.0 kmh SSE -- 30.15 in1021.0 mb 0.00 in0.0 mm 0.00 in0.0 mm 0.00 in0.0 mm